sensor_id;sensor_type;location;lat;lon;timestamp;P1;durP1;ratioP1;P2;durP2;ratioP2
39128;SDS011;24864;49.940;19.770;2022-09-19T00:01:42;2.08;;;1.75;;
39128;SDS011;24864;49.940;19.770;2022-09-19T00:04:12;3.13;;;1.70;;
39128;SDS011;24864;49.940;19.770;2022-09-19T00:06:43;4.28;;;1.45;;
39128;SDS011;24864;49.940;19.770;2022-09-19T00:09:12;3.38;;;1.40;;
39128;SDS011;24864;49.940;19.770;2022-09-19T00:11:43;1.70;;;1.30;;
39128;SDS011;24864;49.940;19.770;2022-09-19T00:14:13;3.05;;;1.42;;
39128;SDS011;24864;49.940;19.770;2022-09-19T00:16:44;1.67;;;1.10;;
39128;SDS011;24864;49.940;19.770;2022-09-19T00:19:14;2.25;;;1.30;;
39128;SDS011;24864;49.940;19.770;2022-09-19T00:21:44;5.15;;;1.33;;
39128;SDS011;24864;49.940;19.770;2022-09-19T00:24:15;3.25;;;1.20;;
39128;SDS011;24864;49.940;19.770;2022-09-19T00:27:04;2.20;;;1.30;;
39128;SDS011;24864;49.940;19.770;2022-09-19T00:29:33;2.33;;;1.27;;
39128;SDS011;24864;49.940;19.770;2022-09-19T00:32:03;1.88;;;1.10;;
39128;SDS011;24864;49.940;19.770;2022-09-19T00:34:34;2.30;;;1.45;;
39128;SDS011;24864;49.940;19.770;2022-09-19T00:37:02;2.45;;;1.20;;
39128;SDS011;24864;49.940;19.770;2022-09-19T00:39:30;3.00;;;1.40;;
39128;SDS011;24864;49.940;19.770;2022-09-19T00:41:59;2.20;;;1.27;;
39128;SDS011;24864;49.940;19.770;2022-09-19T00:47:20;3.40;;;1.42;;
39128;SDS011;24864;49.940;19.770;2022-09-19T00:49:51;2.78;;;1.17;;
39128;SDS011;24864;49.940;19.770;2022-09-19T00:52:24;1.90;;;1.30;;
39128;SDS011;24864;49.940;19.770;2022-09-19T00:54:59;2.55;;;1.13;;
39128;SDS011;24864;49.940;19.770;2022-09-19T00:57:30;1.65;;;1.00;;
39128;SDS011;24864;49.940;19.770;2022-09-19T01:00:06;1.15;;;0.85;;
39128;SDS011;24864;49.940;19.770;2022-09-19T01:02:36;1.23;;;1.02;;
39128;SDS011;24864;49.940;19.770;2022-09-19T01:05:04;1.77;;;1.20;;
39128;SDS011;24864;49.940;19.770;2022-09-19T01:07:39;2.03;;;1.10;;
39128;SDS011;24864;49.940;19.770;2022-09-19T01:10:28;2.20;;;1.05;;
39128;SDS011;24864;49.940;19.770;2022-09-19T01:13:09;3.78;;;1.50;;
39128;SDS011;24864;49.940;19.770;2022-09-19T01:15:45;1.02;;;0.93;;
39128;SDS011;24864;49.940;19.770;2022-09-19T01:18:22;2.58;;;1.10;;
39128;SDS011;24864;49.940;19.770;2022-09-19T01:21:01;1.90;;;1.15;;
39128;SDS011;24864;49.940;19.770;2022-09-19T01:23:59;2.78;;;1.08;;
39128;SDS011;24864;49.940;19.770;2022-09-19T01:26:54;3.70;;;1.40;;
39128;SDS011;24864;49.940;19.770;2022-09-19T01:29:35;2.85;;;1.50;;
39128;SDS011;24864;49.940;19.770;2022-09-19T01:32:09;1.88;;;1.50;;
39128;SDS011;24864;49.940;19.770;2022-09-19T01:34:42;3.53;;;1.92;;
39128;SDS011;24864;49.940;19.770;2022-09-19T01:37:17;2.58;;;2.10;;
39128;SDS011;24864;49.940;19.770;2022-09-19T01:39:48;2.75;;;2.30;;
39128;SDS011;24864;49.940;19.770;2022-09-19T01:42:19;2.45;;;2.25;;
39128;SDS011;24864;49.940;19.770;2022-09-19T01:44:50;3.17;;;2.72;;
39128;SDS011;24864;49.940;19.770;2022-09-19T01:47:19;4.38;;;3.00;;
39128;SDS011;24864;49.940;19.770;2022-09-19T01:49:57;3.35;;;2.90;;
39128;SDS011;24864;49.940;19.770;2022-09-19T01:52:38;3.70;;;3.22;;
39128;SDS011;24864;49.940;19.770;2022-09-19T01:55:20;3.78;;;3.38;;
39128;SDS011;24864;49.940;19.770;2022-09-19T01:57:57;4.03;;;3.63;;
39128;SDS011;24864;49.940;19.770;2022-09-19T02:00:33;4.07;;;3.67;;
39128;SDS011;24864;49.940;19.770;2022-09-19T02:03:07;15.90;;;5.60;;
39128;SDS011;24864;49.940;19.770;2022-09-19T02:05:44;4.38;;;3.90;;
39128;SDS011;24864;49.940;19.770;2022-09-19T02:08:22;4.93;;;3.92;;
39128;SDS011;24864;49.940;19.770;2022-09-19T02:10:58;5.15;;;3.35;;
39128;SDS011;24864;49.940;19.770;2022-09-19T02:13:30;3.53;;;3.10;;
39128;SDS011;24864;49.940;19.770;2022-09-19T02:16:04;4.70;;;3.33;;
39128;SDS011;24864;49.940;19.770;2022-09-19T02:18:35;8.35;;;3.85;;
39128;SDS011;24864;49.940;19.770;2022-09-19T02:21:07;6.45;;;3.50;;
39128;SDS011;24864;49.940;19.770;2022-09-19T02:23:41;4.07;;;3.35;;
39128;SDS011;24864;49.940;19.770;2022-09-19T02:26:15;5.40;;;3.58;;
39128;SDS011;24864;49.940;19.770;2022-09-19T02:28:49;4.07;;;2.85;;
39128;SDS011;24864;49.940;19.770;2022-09-19T02:31:22;8.10;;;3.95;;
39128;SDS011;24864;49.940;19.770;2022-09-19T02:33:54;3.80;;;3.40;;
39128;SDS011;24864;49.940;19.770;2022-09-19T02:36:26;5.75;;;3.85;;
39128;SDS011;24864;49.940;19.770;2022-09-19T02:39:00;5.68;;;4.05;;
39128;SDS011;24864;49.940;19.770;2022-09-19T02:41:34;4.55;;;3.83;;
39128;SDS011;24864;49.940;19.770;2022-09-19T02:44:11;5.22;;;3.75;;
39128;SDS011;24864;49.940;19.770;2022-09-19T02:46:49;4.28;;;3.85;;
39128;SDS011;24864;49.940;19.770;2022-09-19T02:49:26;7.18;;;4.80;;
39128;SDS011;24864;49.940;19.770;2022-09-19T02:54:38;8.02;;;4.75;;
39128;SDS011;24864;49.940;19.770;2022-09-19T02:57:09;7.95;;;5.57;;
39128;SDS011;24864;49.940;19.770;2022-09-19T02:59:42;8.10;;;5.72;;
39128;SDS011;24864;49.940;19.770;2022-09-19T03:02:15;9.50;;;8.18;;
39128;SDS011;24864;49.940;19.770;2022-09-19T03:04:47;13.85;;;8.02;;
39128;SDS011;24864;49.940;19.770;2022-09-19T03:09:56;11.30;;;7.80;;
39128;SDS011;24864;49.940;19.770;2022-09-19T03:12:30;10.85;;;8.55;;
39128;SDS011;24864;49.940;19.770;2022-09-19T03:15:05;12.77;;;8.55;;
39128;SDS011;24864;49.940;19.770;2022-09-19T03:17:37;14.43;;;9.10;;
39128;SDS011;24864;49.940;19.770;2022-09-19T03:20:10;14.70;;;8.85;;
39128;SDS011;24864;49.940;19.770;2022-09-19T03:22:40;9.02;;;7.90;;
39128;SDS011;24864;49.940;19.770;2022-09-19T03:25:09;9.27;;;7.45;;
39128;SDS011;24864;49.940;19.770;2022-09-19T03:27:37;9.15;;;6.25;;
39128;SDS011;24864;49.940;19.770;2022-09-19T03:30:06;8.07;;;6.18;;
39128;SDS011;24864;49.940;19.770;2022-09-19T03:32:41;7.00;;;5.68;;
39128;SDS011;24864;49.940;19.770;2022-09-19T03:35:09;8.45;;;5.75;;
39128;SDS011;24864;49.940;19.770;2022-09-19T03:37:37;7.53;;;5.43;;
39128;SDS011;24864;49.940;19.770;2022-09-19T03:40:06;7.97;;;5.68;;
39128;SDS011;24864;49.940;19.770;2022-09-19T03:42:35;6.45;;;5.60;;
39128;SDS011;24864;49.940;19.770;2022-09-19T03:45:04;8.93;;;5.50;;
39128;SDS011;24864;49.940;19.770;2022-09-19T03:47:33;9.07;;;5.50;;
39128;SDS011;24864;49.940;19.770;2022-09-19T03:50:03;10.30;;;5.82;;
39128;SDS011;24864;49.940;19.770;2022-09-19T03:52:32;7.45;;;5.40;;
39128;SDS011;24864;49.940;19.770;2022-09-19T03:55:01;10.18;;;5.70;;
39128;SDS011;24864;49.940;19.770;2022-09-19T03:57:28;9.05;;;5.47;;
39128;SDS011;24864;49.940;19.770;2022-09-19T03:59:56;10.32;;;5.65;;
39128;SDS011;24864;49.940;19.770;2022-09-19T04:02:24;12.00;;;6.32;;
39128;SDS011;24864;49.940;19.770;2022-09-19T04:04:52;8.88;;;6.82;;
39128;SDS011;24864;49.940;19.770;2022-09-19T04:07:22;15.15;;;6.60;;
39128;SDS011;24864;49.940;19.770;2022-09-19T04:09:51;12.98;;;6.88;;
39128;SDS011;24864;49.940;19.770;2022-09-19T04:12:21;11.65;;;6.50;;
39128;SDS011;24864;49.940;19.770;2022-09-19T04:14:48;11.88;;;6.90;;
39128;SDS011;24864;49.940;19.770;2022-09-19T04:17:17;12.23;;;7.32;;
39128;SDS011;24864;49.940;19.770;2022-09-19T04:19:49;10.60;;;6.35;;
39128;SDS011;24864;49.940;19.770;2022-09-19T04:22:19;13.13;;;7.10;;
39128;SDS011;24864;49.940;19.770;2022-09-19T04:24:49;11.45;;;7.40;;
39128;SDS011;24864;49.940;19.770;2022-09-19T04:27:18;14.43;;;7.50;;
39128;SDS011;24864;49.940;19.770;2022-09-19T04:29:47;11.73;;;7.50;;
39128;SDS011;24864;49.940;19.770;2022-09-19T04:32:15;12.82;;;8.75;;
39128;SDS011;24864;49.940;19.770;2022-09-19T04:34:43;13.23;;;8.93;;
39128;SDS011;24864;49.940;19.770;2022-09-19T04:37:11;15.32;;;9.48;;
39128;SDS011;24864;49.940;19.770;2022-09-19T04:39:42;15.27;;;9.88;;
39128;SDS011;24864;49.940;19.770;2022-09-19T04:42:11;15.18;;;10.05;;
39128;SDS011;24864;49.940;19.770;2022-09-19T04:44:39;16.92;;;10.48;;
39128;SDS011;24864;49.940;19.770;2022-09-19T04:47:07;15.65;;;9.88;;
39128;SDS011;24864;49.940;19.770;2022-09-19T04:49:35;18.13;;;9.35;;
39128;SDS011;24864;49.940;19.770;2022-09-19T04:52:05;13.13;;;8.43;;
39128;SDS011;24864;49.940;19.770;2022-09-19T04:54:33;12.85;;;8.43;;
39128;SDS011;24864;49.940;19.770;2022-09-19T04:57:04;13.57;;;9.05;;
39128;SDS011;24864;49.940;19.770;2022-09-19T04:59:35;10.65;;;6.85;;
39128;SDS011;24864;49.940;19.770;2022-09-19T05:02:03;8.75;;;6.53;;
39128;SDS011;24864;49.940;19.770;2022-09-19T05:04:35;9.10;;;5.97;;
39128;SDS011;24864;49.940;19.770;2022-09-19T05:07:04;8.13;;;5.43;;
39128;SDS011;24864;49.940;19.770;2022-09-19T05:09:32;6.88;;;5.35;;
39128;SDS011;24864;49.940;19.770;2022-09-19T05:12:01;4.78;;;4.15;;
39128;SDS011;24864;49.940;19.770;2022-09-19T05:14:29;13.18;;;5.82;;
39128;SDS011;24864;49.940;19.770;2022-09-19T05:16:58;21.77;;;12.52;;
39128;SDS011;24864;49.940;19.770;2022-09-19T05:19:27;12.23;;;7.57;;
39128;SDS011;24864;49.940;19.770;2022-09-19T05:21:55;9.50;;;5.28;;
39128;SDS011;24864;49.940;19.770;2022-09-19T05:24:23;38.40;;;34.65;;
39128;SDS011;24864;49.940;19.770;2022-09-19T05:26:53;8.30;;;5.70;;
39128;SDS011;24864;49.940;19.770;2022-09-19T05:29:23;5.40;;;4.30;;
39128;SDS011;24864;49.940;19.770;2022-09-19T05:31:50;6.70;;;5.15;;
39128;SDS011;24864;49.940;19.770;2022-09-19T05:34:23;9.40;;;5.82;;
39128;SDS011;24864;49.940;19.770;2022-09-19T05:36:52;9.25;;;7.60;;
39128;SDS011;24864;49.940;19.770;2022-09-19T05:39:20;5.05;;;3.95;;
39128;SDS011;24864;49.940;19.770;2022-09-19T05:41:48;6.88;;;3.78;;
39128;SDS011;24864;49.940;19.770;2022-09-19T05:44:16;5.28;;;3.90;;
39128;SDS011;24864;49.940;19.770;2022-09-19T05:46:45;5.72;;;4.57;;
39128;SDS011;24864;49.940;19.770;2022-09-19T05:49:13;6.82;;;4.53;;
39128;SDS011;24864;49.940;19.770;2022-09-19T05:51:42;8.25;;;5.03;;
39128;SDS011;24864;49.940;19.770;2022-09-19T05:54:10;6.82;;;5.28;;
39128;SDS011;24864;49.940;19.770;2022-09-19T05:56:37;8.65;;;5.22;;
39128;SDS011;24864;49.940;19.770;2022-09-19T05:59:05;14.82;;;5.40;;
39128;SDS011;24864;49.940;19.770;2022-09-19T06:01:33;11.32;;;4.78;;
39128;SDS011;24864;49.940;19.770;2022-09-19T06:04:03;8.45;;;4.68;;
39128;SDS011;24864;49.940;19.770;2022-09-19T06:06:31;6.97;;;4.13;;
39128;SDS011;24864;49.940;19.770;2022-09-19T06:09:00;7.30;;;4.05;;
39128;SDS011;24864;49.940;19.770;2022-09-19T06:11:28;8.43;;;4.28;;
39128;SDS011;24864;49.940;19.770;2022-09-19T06:13:56;8.13;;;3.28;;
39128;SDS011;24864;49.940;19.770;2022-09-19T06:16:43;4.68;;;2.33;;
39128;SDS011;24864;49.940;19.770;2022-09-19T06:19:11;6.18;;;2.70;;
39128;SDS011;24864;49.940;19.770;2022-09-19T06:21:39;4.32;;;2.38;;
39128;SDS011;24864;49.940;19.770;2022-09-19T06:24:08;5.57;;;2.63;;
39128;SDS011;24864;49.940;19.770;2022-09-19T06:26:37;6.45;;;3.05;;
39128;SDS011;24864;49.940;19.770;2022-09-19T06:29:05;5.70;;;3.03;;
39128;SDS011;24864;49.940;19.770;2022-09-19T06:31:35;5.13;;;2.10;;
39128;SDS011;24864;49.940;19.770;2022-09-19T06:34:03;6.07;;;2.35;;
39128;SDS011;24864;49.940;19.770;2022-09-19T06:36:31;5.18;;;2.55;;
39128;SDS011;24864;49.940;19.770;2022-09-19T06:38:59;5.45;;;3.10;;
39128;SDS011;24864;49.940;19.770;2022-09-19T06:41:29;5.10;;;2.40;;
39128;SDS011;24864;49.940;19.770;2022-09-19T06:43:58;7.05;;;3.38;;
39128;SDS011;24864;49.940;19.770;2022-09-19T06:46:26;6.93;;;3.80;;
39128;SDS011;24864;49.940;19.770;2022-09-19T06:48:54;9.70;;;4.35;;
39128;SDS011;24864;49.940;19.770;2022-09-19T06:51:22;8.57;;;4.18;;
39128;SDS011;24864;49.940;19.770;2022-09-19T06:53:50;9.60;;;4.35;;
39128;SDS011;24864;49.940;19.770;2022-09-19T06:56:18;6.90;;;3.80;;
39128;SDS011;24864;49.940;19.770;2022-09-19T06:58:47;5.15;;;4.20;;
39128;SDS011;24864;49.940;19.770;2022-09-19T07:01:15;5.95;;;4.40;;
39128;SDS011;24864;49.940;19.770;2022-09-19T07:03:44;9.07;;;4.88;;
39128;SDS011;24864;49.940;19.770;2022-09-19T07:06:12;12.18;;;4.80;;
39128;SDS011;24864;49.940;19.770;2022-09-19T07:08:39;7.65;;;4.22;;
39128;SDS011;24864;49.940;19.770;2022-09-19T07:11:07;6.95;;;4.45;;
39128;SDS011;24864;49.940;19.770;2022-09-19T07:13:35;6.63;;;4.60;;
39128;SDS011;24864;49.940;19.770;2022-09-19T07:16:05;7.93;;;4.68;;
39128;SDS011;24864;49.940;19.770;2022-09-19T07:18:33;7.38;;;3.28;;
39128;SDS011;24864;49.940;19.770;2022-09-19T07:21:02;7.50;;;3.97;;
39128;SDS011;24864;49.940;19.770;2022-09-19T07:23:30;7.88;;;4.30;;
39128;SDS011;24864;49.940;19.770;2022-09-19T07:25:58;6.28;;;4.05;;
39128;SDS011;24864;49.940;19.770;2022-09-19T07:28:27;7.40;;;4.43;;
39128;SDS011;24864;49.940;19.770;2022-09-19T07:30:57;6.57;;;4.40;;
39128;SDS011;24864;49.940;19.770;2022-09-19T07:33:26;7.03;;;4.38;;
39128;SDS011;24864;49.940;19.770;2022-09-19T07:35:57;5.45;;;3.85;;
39128;SDS011;24864;49.940;19.770;2022-09-19T07:38:25;7.28;;;4.13;;
39128;SDS011;24864;49.940;19.770;2022-09-19T07:40:54;5.38;;;3.92;;
39128;SDS011;24864;49.940;19.770;2022-09-19T07:43:22;6.05;;;3.88;;
39128;SDS011;24864;49.940;19.770;2022-09-19T07:45:51;5.57;;;3.72;;
39128;SDS011;24864;49.940;19.770;2022-09-19T07:48:20;8.90;;;3.78;;
39128;SDS011;24864;49.940;19.770;2022-09-19T07:50:50;6.22;;;3.22;;
39128;SDS011;24864;49.940;19.770;2022-09-19T07:53:24;8.38;;;3.80;;
39128;SDS011;24864;49.940;19.770;2022-09-19T07:55:53;9.27;;;3.70;;
39128;SDS011;24864;49.940;19.770;2022-09-19T07:58:23;4.60;;;3.83;;
39128;SDS011;24864;49.940;19.770;2022-09-19T08:00:53;7.43;;;4.57;;
39128;SDS011;24864;49.940;19.770;2022-09-19T08:03:21;7.20;;;4.68;;
39128;SDS011;24864;49.940;19.770;2022-09-19T08:05:51;8.45;;;5.00;;
39128;SDS011;24864;49.940;19.770;2022-09-19T08:08:20;6.25;;;4.10;;
39128;SDS011;24864;49.940;19.770;2022-09-19T08:10:49;6.60;;;4.60;;
39128;SDS011;24864;49.940;19.770;2022-09-19T08:13:17;6.65;;;4.60;;
39128;SDS011;24864;49.940;19.770;2022-09-19T08:15:48;6.03;;;4.35;;
39128;SDS011;24864;49.940;19.770;2022-09-19T08:18:18;5.82;;;3.53;;
39128;SDS011;24864;49.940;19.770;2022-09-19T08:20:47;6.22;;;3.85;;
39128;SDS011;24864;49.940;19.770;2022-09-19T08:23:18;7.57;;;3.13;;
39128;SDS011;24864;49.940;19.770;2022-09-19T08:25:47;4.60;;;2.63;;
39128;SDS011;24864;49.940;19.770;2022-09-19T08:28:17;4.88;;;2.58;;
39128;SDS011;24864;49.940;19.770;2022-09-19T08:30:46;5.97;;;3.08;;
39128;SDS011;24864;49.940;19.770;2022-09-19T08:33:15;4.53;;;2.83;;
39128;SDS011;24864;49.940;19.770;2022-09-19T08:35:44;5.68;;;3.03;;
39128;SDS011;24864;49.940;19.770;2022-09-19T08:38:12;5.97;;;3.17;;
39128;SDS011;24864;49.940;19.770;2022-09-19T08:40:54;6.40;;;2.70;;
39128;SDS011;24864;49.940;19.770;2022-09-19T08:43:47;5.43;;;2.08;;
39128;SDS011;24864;49.940;19.770;2022-09-19T08:46:26;6.53;;;2.13;;
39128;SDS011;24864;49.940;19.770;2022-09-19T08:49:02;3.30;;;2.42;;
39128;SDS011;24864;49.940;19.770;2022-09-19T08:51:33;5.55;;;2.65;;
39128;SDS011;24864;49.940;19.770;2022-09-19T08:54:15;6.25;;;2.28;;
39128;SDS011;24864;49.940;19.770;2022-09-19T08:56:48;3.75;;;2.60;;
39128;SDS011;24864;49.940;19.770;2022-09-19T08:59:16;6.10;;;2.00;;
39128;SDS011;24864;49.940;19.770;2022-09-19T09:01:49;4.43;;;1.85;;
39128;SDS011;24864;49.940;19.770;2022-09-19T09:04:41;5.10;;;2.20;;
39128;SDS011;24864;49.940;19.770;2022-09-19T09:07:13;5.63;;;2.20;;
39128;SDS011;24864;49.940;19.770;2022-09-19T09:09:52;3.25;;;2.22;;
39128;SDS011;24864;49.940;19.770;2022-09-19T09:12:33;5.60;;;2.35;;
39128;SDS011;24864;49.940;19.770;2022-09-19T09:15:13;7.32;;;1.75;;
39128;SDS011;24864;49.940;19.770;2022-09-19T09:18:14;4.03;;;1.92;;
39128;SDS011;24864;49.940;19.770;2022-09-19T09:20:53;5.43;;;2.28;;
39128;SDS011;24864;49.940;19.770;2022-09-19T09:23:27;5.40;;;2.30;;
39128;SDS011;24864;49.940;19.770;2022-09-19T09:25:58;6.20;;;1.90;;
39128;SDS011;24864;49.940;19.770;2022-09-19T09:28:39;1.92;;;1.27;;
39128;SDS011;24864;49.940;19.770;2022-09-19T09:31:13;3.08;;;1.60;;
39128;SDS011;24864;49.940;19.770;2022-09-19T09:33:49;4.82;;;1.55;;
39128;SDS011;24864;49.940;19.770;2022-09-19T09:36:21;3.60;;;1.23;;
39128;SDS011;24864;49.940;19.770;2022-09-19T09:38:58;3.17;;;1.38;;
39128;SDS011;24864;49.940;19.770;2022-09-19T09:41:35;4.40;;;2.03;;
39128;SDS011;24864;49.940;19.770;2022-09-19T09:44:22;2.13;;;1.25;;
39128;SDS011;24864;49.940;19.770;2022-09-19T09:47:00;2.00;;;1.13;;
39128;SDS011;24864;49.940;19.770;2022-09-19T09:49:34;1.90;;;1.30;;
39128;SDS011;24864;49.940;19.770;2022-09-19T09:52:05;6.43;;;1.55;;
39128;SDS011;24864;49.940;19.770;2022-09-19T09:54:50;2.78;;;1.60;;
39128;SDS011;24864;49.940;19.770;2022-09-19T09:57:47;4.53;;;1.65;;
39128;SDS011;24864;49.940;19.770;2022-09-19T10:00:23;2.97;;;2.10;;
39128;SDS011;24864;49.940;19.770;2022-09-19T10:03:13;2.40;;;1.70;;
39128;SDS011;24864;49.940;19.770;2022-09-19T10:06:03;2.55;;;1.80;;
39128;SDS011;24864;49.940;19.770;2022-09-19T10:08:39;3.60;;;1.92;;
39128;SDS011;24864;49.940;19.770;2022-09-19T10:11:12;2.72;;;1.88;;
39128;SDS011;24864;49.940;19.770;2022-09-19T10:14:04;2.58;;;1.58;;
39128;SDS011;24864;49.940;19.770;2022-09-19T10:16:36;2.72;;;1.60;;
39128;SDS011;24864;49.940;19.770;2022-09-19T10:19:06;2.95;;;1.90;;
39128;SDS011;24864;49.940;19.770;2022-09-19T10:21:42;2.42;;;1.75;;
39128;SDS011;24864;49.940;19.770;2022-09-19T10:27:10;4.78;;;2.97;;
39128;SDS011;24864;49.940;19.770;2022-09-19T10:29:50;6.85;;;2.88;;
39128;SDS011;24864;49.940;19.770;2022-09-19T10:32:23;6.10;;;3.72;;
39128;SDS011;24864;49.940;19.770;2022-09-19T10:34:53;3.55;;;2.45;;
39128;SDS011;24864;49.940;19.770;2022-09-19T10:37:22;3.47;;;2.28;;
39128;SDS011;24864;49.940;19.770;2022-09-19T10:39:52;2.97;;;2.45;;
39128;SDS011;24864;49.940;19.770;2022-09-19T10:42:29;3.67;;;2.38;;
39128;SDS011;24864;49.940;19.770;2022-09-19T10:45:14;5.40;;;2.53;;
39128;SDS011;24864;49.940;19.770;2022-09-19T10:47:47;2.70;;;2.42;;
39128;SDS011;24864;49.940;19.770;2022-09-19T10:50:16;4.55;;;2.53;;
39128;SDS011;24864;49.940;19.770;2022-09-19T10:52:45;6.50;;;2.30;;
39128;SDS011;24864;49.940;19.770;2022-09-19T10:55:19;2.72;;;1.95;;
39128;SDS011;24864;49.940;19.770;2022-09-19T10:57:51;6.95;;;2.30;;
39128;SDS011;24864;49.940;19.770;2022-09-19T11:00:27;2.30;;;2.00;;
39128;SDS011;24864;49.940;19.770;2022-09-19T11:03:03;3.08;;;2.10;;
39128;SDS011;24864;49.940;19.770;2022-09-19T11:05:33;1.83;;;1.52;;
39128;SDS011;24864;49.940;19.770;2022-09-19T11:08:03;2.78;;;1.52;;
39128;SDS011;24864;49.940;19.770;2022-09-19T11:10:49;5.63;;;2.53;;
39128;SDS011;24864;49.940;19.770;2022-09-19T11:13:18;3.28;;;2.20;;
39128;SDS011;24864;49.940;19.770;2022-09-19T11:16:02;2.92;;;1.60;;
39128;SDS011;24864;49.940;19.770;2022-09-19T11:18:55;3.08;;;1.30;;
39128;SDS011;24864;49.940;19.770;2022-09-19T11:21:40;3.45;;;1.60;;
39128;SDS011;24864;49.940;19.770;2022-09-19T11:27:21;3.50;;;1.83;;
39128;SDS011;24864;49.940;19.770;2022-09-19T11:30:02;5.28;;;1.55;;
39128;SDS011;24864;49.940;19.770;2022-09-19T11:32:47;1.98;;;1.50;;
39128;SDS011;24864;49.940;19.770;2022-09-19T11:35:32;4.05;;;2.10;;
39128;SDS011;24864;49.940;19.770;2022-09-19T11:38:11;2.90;;;2.00;;
39128;SDS011;24864;49.940;19.770;2022-09-19T11:41:14;3.63;;;2.47;;
39128;SDS011;24864;49.940;19.770;2022-09-19T11:43:54;3.50;;;2.05;;
39128;SDS011;24864;49.940;19.770;2022-09-19T11:46:35;5.22;;;2.35;;
39128;SDS011;24864;49.940;19.770;2022-09-19T11:49:19;3.08;;;2.78;;
39128;SDS011;24864;49.940;19.770;2022-09-19T11:52:07;2.88;;;1.98;;
39128;SDS011;24864;49.940;19.770;2022-09-19T11:54:53;6.75;;;2.58;;
39128;SDS011;24864;49.940;19.770;2022-09-19T11:57:38;2.50;;;2.28;;
39128;SDS011;24864;49.940;19.770;2022-09-19T12:00:12;5.18;;;2.55;;
39128;SDS011;24864;49.940;19.770;2022-09-19T12:02:52;3.88;;;2.58;;
39128;SDS011;24864;49.940;19.770;2022-09-19T12:05:41;3.45;;;2.17;;
39128;SDS011;24864;49.940;19.770;2022-09-19T12:08:23;3.67;;;3.10;;
39128;SDS011;24864;49.940;19.770;2022-09-19T12:10:59;4.15;;;2.55;;
39128;SDS011;24864;49.940;19.770;2022-09-19T12:13:33;4.25;;;2.75;;
39128;SDS011;24864;49.940;19.770;2022-09-19T12:16:10;2.78;;;2.47;;
39128;SDS011;24864;49.940;19.770;2022-09-19T12:18:53;3.17;;;2.80;;
39128;SDS011;24864;49.940;19.770;2022-09-19T12:21:26;3.58;;;2.42;;
39128;SDS011;24864;49.940;19.770;2022-09-19T12:24:03;3.53;;;2.45;;
39128;SDS011;24864;49.940;19.770;2022-09-19T12:26:57;2.92;;;2.13;;
39128;SDS011;24864;49.940;19.770;2022-09-19T12:29:29;2.78;;;2.10;;
39128;SDS011;24864;49.940;19.770;2022-09-19T12:32:03;2.92;;;2.33;;
39128;SDS011;24864;49.940;19.770;2022-09-19T12:34:41;3.80;;;1.85;;
39128;SDS011;24864;49.940;19.770;2022-09-19T12:37:15;2.42;;;1.65;;
39128;SDS011;24864;49.940;19.770;2022-09-19T12:39:54;3.45;;;2.08;;
39128;SDS011;24864;49.940;19.770;2022-09-19T12:42:29;2.55;;;2.00;;
39128;SDS011;24864;49.940;19.770;2022-09-19T12:45:09;6.65;;;2.40;;
39128;SDS011;24864;49.940;19.770;2022-09-19T12:47:50;1.83;;;1.42;;
39128;SDS011;24864;49.940;19.770;2022-09-19T12:50:24;2.38;;;1.40;;
39128;SDS011;24864;49.940;19.770;2022-09-19T12:53:02;1.52;;;1.42;;
39128;SDS011;24864;49.940;19.770;2022-09-19T12:55:39;2.22;;;1.40;;
39128;SDS011;24864;49.940;19.770;2022-09-19T12:58:14;3.63;;;1.80;;
39128;SDS011;24864;49.940;19.770;2022-09-19T13:00:47;2.75;;;1.23;;
39128;SDS011;24864;49.940;19.770;2022-09-19T13:03:19;2.63;;;1.33;;
39128;SDS011;24864;49.940;19.770;2022-09-19T13:05:54;2.03;;;1.30;;
39128;SDS011;24864;49.940;19.770;2022-09-19T13:08:26;1.20;;;1.00;;
39128;SDS011;24864;49.940;19.770;2022-09-19T13:11:02;1.10;;;1.00;;
39128;SDS011;24864;49.940;19.770;2022-09-19T13:13:37;1.90;;;1.05;;
39128;SDS011;24864;49.940;19.770;2022-09-19T13:16:18;1.50;;;1.00;;
39128;SDS011;24864;49.940;19.770;2022-09-19T13:18:51;1.38;;;1.10;;
39128;SDS011;24864;49.940;19.770;2022-09-19T13:21:39;1.63;;;1.15;;
39128;SDS011;24864;49.940;19.770;2022-09-19T13:24:29;1.58;;;1.15;;
39128;SDS011;24864;49.940;19.770;2022-09-19T13:27:06;2.05;;;1.35;;
39128;SDS011;24864;49.940;19.770;2022-09-19T13:29:42;2.22;;;1.50;;
39128;SDS011;24864;49.940;19.770;2022-09-19T13:32:27;1.92;;;1.20;;
39128;SDS011;24864;49.940;19.770;2022-09-19T13:35:10;2.40;;;1.27;;
39128;SDS011;24864;49.940;19.770;2022-09-19T13:37:52;3.10;;;1.50;;
39128;SDS011;24864;49.940;19.770;2022-09-19T13:40:36;2.67;;;1.50;;
39128;SDS011;24864;49.940;19.770;2022-09-19T13:43:19;4.03;;;1.75;;
39128;SDS011;24864;49.940;19.770;2022-09-19T13:45:53;2.03;;;1.50;;
39128;SDS011;24864;49.940;19.770;2022-09-19T13:48:34;2.60;;;1.70;;
39128;SDS011;24864;49.940;19.770;2022-09-19T13:51:06;6.38;;;1.80;;
39128;SDS011;24864;49.940;19.770;2022-09-19T13:53:40;1.67;;;1.23;;
39128;SDS011;24864;49.940;19.770;2022-09-19T13:56:19;2.47;;;1.42;;
39128;SDS011;24864;49.940;19.770;2022-09-19T14:01:54;1.50;;;1.10;;
39128;SDS011;24864;49.940;19.770;2022-09-19T14:04:33;2.67;;;1.35;;
39128;SDS011;24864;49.940;19.770;2022-09-19T14:07:28;1.83;;;1.45;;
39128;SDS011;24864;49.940;19.770;2022-09-19T14:10:21;2.22;;;1.10;;
39128;SDS011;24864;49.940;19.770;2022-09-19T14:12:53;1.90;;;1.15;;
39128;SDS011;24864;49.940;19.770;2022-09-19T14:18:24;3.75;;;1.52;;
39128;SDS011;24864;49.940;19.770;2022-09-19T14:21:00;1.92;;;1.25;;
39128;SDS011;24864;49.940;19.770;2022-09-19T14:23:29;3.30;;;1.77;;
39128;SDS011;24864;49.940;19.770;2022-09-19T14:25:59;2.30;;;1.88;;
39128;SDS011;24864;49.940;19.770;2022-09-19T14:28:34;6.43;;;2.03;;
39128;SDS011;24864;49.940;19.770;2022-09-19T14:31:12;2.97;;;1.70;;
39128;SDS011;24864;49.940;19.770;2022-09-19T14:34:06;2.17;;;1.58;;
39128;SDS011;24864;49.940;19.770;2022-09-19T14:36:56;3.30;;;2.03;;
39128;SDS011;24864;49.940;19.770;2022-09-19T14:39:46;2.58;;;2.33;;
39128;SDS011;24864;49.940;19.770;2022-09-19T14:42:25;3.35;;;1.80;;
39128;SDS011;24864;49.940;19.770;2022-09-19T14:48:24;2.13;;;1.60;;
39128;SDS011;24864;49.940;19.770;2022-09-19T14:50:58;3.60;;;1.92;;
39128;SDS011;24864;49.940;19.770;2022-09-19T14:53:36;3.25;;;1.80;;
39128;SDS011;24864;49.940;19.770;2022-09-19T14:56:10;2.90;;;1.77;;
39128;SDS011;24864;49.940;19.770;2022-09-19T14:58:39;3.40;;;1.98;;
39128;SDS011;24864;49.940;19.770;2022-09-19T15:01:09;3.75;;;2.08;;
39128;SDS011;24864;49.940;19.770;2022-09-19T15:03:43;2.80;;;1.90;;
39128;SDS011;24864;49.940;19.770;2022-09-19T15:06:22;4.90;;;2.33;;
39128;SDS011;24864;49.940;19.770;2022-09-19T15:08:56;4.88;;;2.47;;
39128;SDS011;24864;49.940;19.770;2022-09-19T15:11:24;6.28;;;2.83;;
39128;SDS011;24864;49.940;19.770;2022-09-19T15:13:52;6.25;;;3.20;;
39128;SDS011;24864;49.940;19.770;2022-09-19T15:16:22;6.40;;;3.10;;
39128;SDS011;24864;49.940;19.770;2022-09-19T15:18:51;3.63;;;2.28;;
39128;SDS011;24864;49.940;19.770;2022-09-19T15:21:24;6.32;;;5.05;;
39128;SDS011;24864;49.940;19.770;2022-09-19T15:23:55;3.72;;;2.28;;
39128;SDS011;24864;49.940;19.770;2022-09-19T15:26:26;6.18;;;2.45;;
39128;SDS011;24864;49.940;19.770;2022-09-19T15:28:58;3.08;;;2.45;;
39128;SDS011;24864;49.940;19.770;2022-09-19T15:31:28;5.13;;;3.38;;
39128;SDS011;24864;49.940;19.770;2022-09-19T15:34:01;4.95;;;3.97;;
39128;SDS011;24864;49.940;19.770;2022-09-19T15:36:32;4.03;;;3.30;;